Warren, RI (02885)

8:11 PM EDT on March 26, 2017 (GMT -0400)
Beach Terrace | | Change Station

Elev 47 ft 41.72 °N, 71.28 °W | Updated 2 seconds ago

Overcast
Overcast
38.5 °F
Feels Like 38 °F
N
2.9
Wind Variable Wind from ENE
Gusts 7.0 mph

Today
High -- | Low -- °F
--% Chance of Precip.
Yesterday
High -- | Low -- °F
Precip. -- in
Pressure 30.45 in
Visibility 10.0 miles
Clouds Mostly Cloudy 3700 ft
Mostly Cloudy 4600 ft
Overcast 6000 ft
Windchill 38 °F
Dew Point 30 °F
Humidity 72%
Rainfall 0.00 in
Snow Depth Not available.
6:37 AM 7:04 PM
Waning Crescent, 2% visible
METAR KPVD 262351Z 12005KT 10SM BKN037 BKN046 OVC060 03/M03 A3045 RMK AO2 SLP310 RAB05E38 P0000 60000 T00331028 10061 20033 56009
Pressure 30.45 in
Visibility 10.0 miles
Clouds Mostly Cloudy 3700 ft
Mostly Cloudy 4600 ft
Overcast 6000 ft
Windchill 38 °F
Dew Point 30 °F
Humidity 72%
Rainfall 0.00 in
Snow Depth Not available.
6:37 AM 7:04 PM
Waning Crescent, 2% visible
METAR KPVD 262351Z 12005KT 10SM BKN037 BKN046 OVC060 03/M03 A3045 RMK AO2 SLP310 RAB05E38 P0000 60000 T00331028 10061 20033 56009

Get Severe Weather Alerts

Thanks for signing up!

Be on the lookout for a verification email in your inbox.

You'll start receiving the daily forecast at 8 AM.

×

10-Day Weather Forecast

Almanac

Astronomy

Mar. 26, 2017 Rise Set
Actual Time
Civil Twilight
Nautical Twilight
Astronomical Twilight
Moon
Length of Visible Light
Length of Day
Tomorrow will be .
, % of the Moon is Illuminated

Today's Extremes

State Highs State Lows

Community

WunderPhotos

Upload Photos

1,962,540 photos uploaded!

WunderBlog® & News

Nearby

Air Quality

  Air Quality AQ Index Pollutant
Not available.

Snow Depth

Station Depth Elevation

Earthquake Activity

City Distance Mag. Time & Date
Minimum magnitude displayed is 2.5.

Earthquake Activity

City Distance Mag. Time & Date
Minimum magnitude displayed is 2.5.

Coastal Water Temperatures

Place Temperature

Stations

Nearby Weather Stations

Station Location Temp. Windchill Dew Point Humidity Wind Precip. Elev Updated Type
                   

Watches & Warnings

There are currently no watches in effect.